To NAV CANADA Home Page Login to a new session Search on AWWS site Disclaimer Vers la page française équivalente Tips FAQ What's new on the site To the Forecasts and Observations / NOTAM section To "File a Flight Plan" website Publications and other links Update of the User's profile FIC Telephone Numbers My Weather Data Folder Route Weather Data Regional Weather Data Local Weather Data To the Forecasts and Observations / NOTAM section
Request Generated 03/21/2019 at 02:07:53 UTC . Weather information available at that time is displayed.

METAR/TAF

VICTORIA HARBOUR/BC /WATER    

METAR CYWH 210200Z 07003KT 030V090 15SM SCT240 19/01 A2983 RMK CI4 SLP103 DENSITY ALT 600FT=
METAR CYWH 210100Z 07004KT 030V120 15SM FEW240 20/00 A2983 RMK CI2 SLP104 DENSITY ALT 700FT=
METAR CYWH 210000Z 01005KT 340V050 15SM FEW240 20/M01 A2983 RMK CI1 CI TR SLP101 DENSITY ALT 800FT=

TAF CYWH 202338Z 2100/2104 01010KT P6SM SKC
BECMG 2101/2103 VRB03KT
RMK NXT FCST WILL BE ISSUED AT 211415Z=
Your time UTC time
Weather data provided by Environment Canada and NAV CANADA